Time;durP1;ratioP1;P1;durP2;ratioP2;P2;SDS_P1;SDS_P2;PMS_P1;PMS_P2;Temp;Humidity;BMP_temperature;BMP_pressure;BME280_temperature;BME280_humidity;BME280_pressure;Samples;Min_cycle;Max_cycle;Signal;HPM_P1;HPM_P2
2023/09/19 00:02:01;;;;;;;11.17;2.10;;;;;;;;;;5030277;28;20055;-63
2023/09/19 00:04:29;;;;;;;8.73;2.27;;;;;;;;;;5029743;28;20046;-63
2023/09/19 00:06:55;;;;;;;12.83;2.83;;;;;;;;;;5030032;28;20060;-63
2023/09/19 00:09:21;;;;;;;12.67;3.20;;;;;;;;;;5029030;28;20053;-63
2023/09/19 00:11:51;;;;;;;10.87;2.87;;;;;;;;;;5029735;28;20046;-63
2023/09/19 00:14:17;;;;;;;10.83;2.60;;;;;;;;;;5028754;28;20049;-63
2023/09/19 00:16:43;;;;;;;12.90;2.60;;;;;;;;;;5029448;28;20049;-63
2023/09/19 00:19:09;;;;;;;13.03;2.87;;;;;;;;;;5029732;28;20050;-63
2023/09/19 00:21:37;;;;;;;11.03;2.63;;;;;;;;;;5029350;28;20053;-63
2023/09/19 00:24:04;;;;;;;12.50;2.90;;;;;;;;;;5028937;28;20060;-63
2023/09/19 00:26:32;;;;;;;14.53;3.30;;;;;;;;;;5030053;28;20049;-63
2023/09/19 00:28:59;;;;;;;14.93;3.30;;;;;;;;;;5029749;28;20086;-64
2023/09/19 00:31:25;;;;;;;10.47;2.70;;;;;;;;;;5029628;28;20574;-63
2023/09/19 00:33:53;;;;;;;10.70;2.73;;;;;;;;;;5029463;28;20080;-63
2023/09/19 00:36:19;;;;;;;13.00;3.00;;;;;;;;;;5028802;28;20057;-63
2023/09/19 00:38:46;;;;;;;20.17;3.40;;;;;;;;;;5029519;28;20045;-63
2023/09/19 00:41:12;;;;;;;15.40;2.87;;;;;;;;;;5027469;28;20431;-63
2023/09/19 00:43:40;;;;;;;15.20;3.30;;;;;;;;;;5029467;28;20053;-63
2023/09/19 00:46:06;;;;;;;14.10;3.10;;;;;;;;;;5028032;28;20089;-63
2023/09/19 00:48:32;;;;;;;19.17;3.83;;;;;;;;;;5029185;28;20049;-63
2023/09/19 00:51:00;;;;;;;15.47;2.63;;;;;;;;;;5028864;28;20061;-63
2023/09/19 00:53:27;;;;;;;15.27;3.17;;;;;;;;;;5028923;28;20037;-63
2023/09/19 00:55:53;;;;;;;23.50;3.00;;;;;;;;;;5028377;28;20496;-63
2023/09/19 00:58:20;;;;;;;20.17;3.10;;;;;;;;;;5029150;28;20519;-63
2023/09/19 01:00:47;;;;;;;20.80;3.60;;;;;;;;;;5028899;28;20052;-64
2023/09/19 01:03:13;;;;;;;13.60;3.20;;;;;;;;;;5028730;28;20041;-63
2023/09/19 01:05:39;;;;;;;17.97;3.67;;;;;;;;;;5028278;28;20053;-63
2023/09/19 01:08:06;;;;;;;20.50;3.97;;;;;;;;;;5029040;28;20053;-63
2023/09/19 01:10:33;;;;;;;11.53;3.37;;;;;;;;;;5028235;28;20052;-63
2023/09/19 01:13:05;;;;;;;15.80;4.27;;;;;;;;;;5028808;28;20721;-63
2023/09/19 01:15:40;;;;;;;21.17;3.75;;;;;;;;;;5027254;28;20045;-63
2023/09/19 01:18:16;;;;;;;16.97;3.33;;;;;;;;;;5028586;28;20084;-63
2023/09/19 01:21:04;;;;;;;20.60;3.53;;;;;;;;;;5028628;28;20514;-63
2023/09/19 01:23:48;;;;;;;19.57;4.23;;;;;;;;;;5028528;28;20519;-63
2023/09/19 01:26:33;;;;;;;16.97;2.90;;;;;;;;;;5011103;28;20594;-63
2023/09/19 01:29:13;;;;;;;21.20;3.70;;;;;;;;;;5028716;28;20371;-63
2023/09/19 01:31:40;;;;;;;12.93;3.37;;;;;;;;;;5028364;28;20060;-64
2023/09/19 01:34:08;;;;;;;13.27;3.30;;;;;;;;;;5028384;28;20045;-63
2023/09/19 01:36:36;;;;;;;10.77;3.37;;;;;;;;;;5027656;28;20048;-63
2023/09/19 01:39:10;;;;;;;14.20;3.77;;;;;;;;;;5027877;28;20045;-63
2023/09/19 01:42:02;;;;;;;17.70;3.33;;;;;;;;;;5027925;28;20140;-63
2023/09/19 01:44:44;;;;;;;12.73;3.67;;;;;;;;;;5025072;28;20050;-63
2023/09/19 01:47:17;;;;;;;15.38;4.18;;;;;;;;;;5027739;28;20076;-63
2023/09/19 01:49:51;;;;;;;13.30;3.80;;;;;;;;;;5028295;28;20085;-63
2023/09/19 01:52:19;;;;;;;14.40;3.85;;;;;;;;;;5028017;28;20048;-63
2023/09/19 01:54:59;;;;;;;19.43;4.50;;;;;;;;;;5028459;28;20053;-63
2023/09/19 01:57:30;;;;;;;12.30;3.67;;;;;;;;;;5027525;28;20252;-63
2023/09/19 02:00:06;;;;;;;10.83;3.80;;;;;;;;;;5027612;28;20124;-63
2023/09/19 02:02:37;;;;;;;15.53;4.20;;;;;;;;;;5028175;28;20088;-63
2023/09/19 02:05:04;;;;;;;14.13;3.53;;;;;;;;;;5027034;28;20045;-63
2023/09/19 02:07:31;;;;;;;16.60;3.70;;;;;;;;;;5027007;28;20061;-63
2023/09/19 02:09:58;;;;;;;16.97;3.47;;;;;;;;;;5028580;28;20208;-63
2023/09/19 02:12:25;;;;;;;13.83;5.03;;;;;;;;;;5029590;28;20136;-63
2023/09/19 02:14:50;;;;;;;22.30;3.83;;;;;;;;;;5032041;28;20494;-63
2023/09/19 02:17:17;;;;;;;17.10;3.87;;;;;;;;;;5031485;28;20045;-63
2023/09/19 02:19:43;;;;;;;12.57;3.53;;;;;;;;;;5032259;28;20504;-63
2023/09/19 02:22:10;;;;;;;16.60;4.10;;;;;;;;;;5031531;28;20042;-63
2023/09/19 02:24:36;;;;;;;12.60;4.77;;;;;;;;;;5063001;28;20524;-63
2023/09/19 02:27:07;;;;;;;15.33;3.53;;;;;;;;;;5031766;28;20049;-63
2023/09/19 02:29:34;;;;;;;11.70;3.10;;;;;;;;;;5031934;28;20420;-63
2023/09/19 02:32:02;;;;;;;16.90;3.47;;;;;;;;;;5031734;28;20060;-63
2023/09/19 02:34:28;;;;;;;11.63;3.73;;;;;;;;;;5030454;28;20205;-63
2023/09/19 02:36:55;;;;;;;10.80;3.37;;;;;;;;;;5031873;28;20091;-63
2023/09/19 02:39:21;;;;;;;14.20;3.37;;;;;;;;;;5031761;28;20049;-63
2023/09/19 02:41:47;;;;;;;13.90;3.13;;;;;;;;;;5031276;28;20111;-63
2023/09/19 02:44:14;;;;;;;13.37;3.40;;;;;;;;;;5030473;28;20499;-63
2023/09/19 02:46:40;;;;;;;17.20;3.70;;;;;;;;;;5031609;28;20136;-63
2023/09/19 02:49:06;;;;;;;13.60;3.37;;;;;;;;;;5031121;28;20183;-63
2023/09/19 02:51:33;;;;;;;12.13;3.17;;;;;;;;;;5031821;28;20124;-63
2023/09/19 02:54:05;;;;;;;15.00;4.27;;;;;;;;;;5031098;28;20627;-63
2023/09/19 02:56:32;;;;;;;14.50;3.70;;;;;;;;;;5031413;28;20045;-63
2023/09/19 02:58:58;;;;;;;12.87;2.73;;;;;;;;;;5031154;28;20060;-63
2023/09/19 03:01:24;;;;;;;17.43;3.40;;;;;;;;;;5030574;28;20053;-63
2023/09/19 03:03:50;;;;;;;14.23;3.53;;;;;;;;;;5030183;28;20081;-63
2023/09/19 03:06:19;;;;;;;15.40;3.50;;;;;;;;;;5015710;28;20081;-63
2023/09/19 03:08:46;;;;;;;11.03;2.90;;;;;;;;;;5011502;28;20073;-63
2023/09/19 03:11:16;;;;;;;10.70;3.33;;;;;;;;;;5011211;28;20096;-63
2023/09/19 03:13:42;;;;;;;8.40;3.00;;;;;;;;;;5018586;28;20037;-63
2023/09/19 03:16:08;;;;;;;11.40;2.80;;;;;;;;;;5030768;28;20054;-63
2023/09/19 03:18:35;;;;;;;14.23;3.77;;;;;;;;;;5031173;28;20488;-62
2023/09/19 03:21:01;;;;;;;15.33;3.20;;;;;;;;;;5030975;28;20606;-63
2023/09/19 03:23:28;;;;;;;10.50;2.53;;;;;;;;;;5028857;28;20087;-63
2023/09/19 03:25:54;;;;;;;12.73;3.10;;;;;;;;;;5030836;28;20056;-63
2023/09/19 03:28:23;;;;;;;13.90;3.27;;;;;;;;;;5030847;28;20908;-63
2023/09/19 03:31:02;;;;;;;14.73;3.03;;;;;;;;;;5031037;28;20053;-63
2023/09/19 03:33:28;;;;;;;16.83;3.23;;;;;;;;;;5028764;28;20045;-63
2023/09/19 03:35:54;;;;;;;12.50;3.20;;;;;;;;;;5030869;28;20519;-63
2023/09/19 03:38:21;;;;;;;12.57;2.77;;;;;;;;;;5030695;28;20054;-63
2023/09/19 03:40:48;;;;;;;13.30;3.37;;;;;;;;;;5030165;28;20057;-63
2023/09/19 03:43:14;;;;;;;11.77;3.70;;;;;;;;;;5030130;28;20442;-63
2023/09/19 03:45:40;;;;;;;11.80;3.27;;;;;;;;;;5030736;28;20163;-63
2023/09/19 03:48:10;;;;;;;14.83;3.37;;;;;;;;;;5030479;28;20091;-63
2023/09/19 03:50:36;;;;;;;10.40;4.23;;;;;;;;;;5030562;28;20048;-63
2023/09/19 03:53:02;;;;;;;11.30;3.23;;;;;;;;;;5029307;28;20081;-63
2023/09/19 03:55:30;;;;;;;16.53;5.00;;;;;;;;;;5029749;28;20060;-63
2023/09/19 03:57:56;;;;;;;11.47;2.87;;;;;;;;;;5030773;28;20077;-63
2023/09/19 04:00:24;;;;;;;16.30;3.40;;;;;;;;;;5030314;28;20056;-63
2023/09/19 04:02:51;;;;;;;13.67;3.20;;;;;;;;;;5030161;28;20072;-63
2023/09/19 04:05:17;;;;;;;9.90;2.70;;;;;;;;;;5013999;28;20135;-63
2023/09/19 04:07:43;;;;;;;14.97;3.17;;;;;;;;;;5029394;28;20072;-63
2023/09/19 04:10:11;;;;;;;13.63;4.00;;;;;;;;;;5029984;28;20601;-63
2023/09/19 04:12:38;;;;;;;14.60;2.87;;;;;;;;;;5030072;28;20134;-63
2023/09/19 04:15:05;;;;;;;14.53;3.40;;;;;;;;;;5029094;28;20140;-63
2023/09/19 04:17:33;;;;;;;21.10;4.47;;;;;;;;;;5029832;28;20045;-63
2023/09/19 04:19:59;;;;;;;13.50;3.37;;;;;;;;;;5029976;28;20053;-63
2023/09/19 04:22:25;;;;;;;15.10;3.87;;;;;;;;;;5029733;28;20049;-63
2023/09/19 04:24:51;;;;;;;14.83;4.27;;;;;;;;;;5028945;28;20049;-63
2023/09/19 04:27:18;;;;;;;13.60;3.33;;;;;;;;;;5029940;28;20044;-63
2023/09/19 04:29:44;;;;;;;16.73;3.33;;;;;;;;;;5029559;28;20085;-63
2023/09/19 04:32:10;;;;;;;13.73;3.40;;;;;;;;;;5029649;28;20119;-63
2023/09/19 04:34:38;;;;;;;18.63;4.83;;;;;;;;;;5027843;28;20045;-63
2023/09/19 04:37:04;;;;;;;17.43;3.97;;;;;;;;;;5029128;28;20164;-63
2023/09/19 04:39:30;;;;;;;16.40;3.40;;;;;;;;;;5029400;28;20093;-62
2023/09/19 04:41:56;;;;;;;16.87;3.90;;;;;;;;;;5029119;28;20092;-63
2023/09/19 04:44:22;;;;;;;28.50;4.83;;;;;;;;;;5028080;28;20050;-63
2023/09/19 04:46:48;;;;;;;18.17;3.60;;;;;;;;;;5029496;28;20037;-63
2023/09/19 04:49:14;;;;;;;15.53;3.23;;;;;;;;;;5028847;28;20045;-63
2023/09/19 04:51:41;;;;;;;17.00;3.90;;;;;;;;;;5028961;28;20467;-63
2023/09/19 04:54:07;;;;;;;14.33;3.17;;;;;;;;;;5028334;28;20041;-63
2023/09/19 04:56:33;;;;;;;9.10;3.00;;;;;;;;;;5028275;28;20073;-63
2023/09/19 04:59:00;;;;;;;15.90;3.70;;;;;;;;;;5028381;28;20045;-63
2023/09/19 05:01:26;;;;;;;19.13;3.90;;;;;;;;;;5028583;28;20514;-63
2023/09/19 05:03:53;;;;;;;21.57;3.47;;;;;;;;;;5028400;28;20412;-63
2023/09/19 05:06:20;;;;;;;20.20;2.80;;;;;;;;;;5027987;28;20187;-63
2023/09/19 05:08:50;;;;;;;17.03;2.90;;;;;;;;;;5028201;28;20045;-63
2023/09/19 05:11:16;;;;;;;15.73;3.67;;;;;;;;;;5028445;28;20104;-63
2023/09/19 05:13:43;;;;;;;17.53;4.07;;;;;;;;;;5028907;28;20131;-63
2023/09/19 05:16:10;;;;;;;21.87;4.07;;;;;;;;;;5028762;28;20456;-63
2023/09/19 05:18:36;;;;;;;18.13;2.83;;;;;;;;;;5026030;28;20492;-63
2023/09/19 05:21:05;;;;;;;12.07;3.10;;;;;;;;;;5028414;28;20037;-63
2023/09/19 05:23:31;;;;;;;17.57;4.07;;;;;;;;;;5028565;28;20523;-63
2023/09/19 05:25:59;;;;;;;16.47;3.07;;;;;;;;;;5027751;28;20041;-63
2023/09/19 05:28:26;;;;;;;11.43;2.77;;;;;;;;;;5027385;28;20168;-63
2023/09/19 05:30:52;;;;;;;17.63;2.97;;;;;;;;;;5026972;28;20691;-63
2023/09/19 05:33:19;;;;;;;18.57;3.20;;;;;;;;;;5026755;28;20085;-63
2023/09/19 05:35:46;;;;;;;21.97;3.00;;;;;;;;;;5027884;28;20190;-63
2023/09/19 05:38:13;;;;;;;21.90;3.23;;;;;;;;;;5028028;28;20500;-63
2023/09/19 05:40:42;;;;;;;13.27;3.53;;;;;;;;;;5027986;28;20530;-63
2023/09/19 05:43:08;;;;;;;13.80;4.17;;;;;;;;;;5028210;28;20053;-63
2023/09/19 05:45:34;;;;;;;13.03;2.73;;;;;;;;;;5026812;28;20398;-63
2023/09/19 05:48:11;;;;;;;15.57;3.47;;;;;;;;;;5027703;28;20045;-63
2023/09/19 05:50:38;;;;;;;13.33;4.03;;;;;;;;;;5028175;28;20056;-63
2023/09/19 05:53:04;;;;;;;17.13;2.70;;;;;;;;;;5028055;28;20084;-63
2023/09/19 05:55:30;;;;;;;14.40;2.87;;;;;;;;;;5027319;28;20053;-63
2023/09/19 05:57:56;;;;;;;17.37;4.13;;;;;;;;;;5027824;28;20080;-63
2023/09/19 06:00:23;;;;;;;13.33;3.13;;;;;;;;;;5028426;28;20107;-63
2023/09/19 06:02:53;;;;;;;15.43;2.53;;;;;;;;;;5027798;28;20403;-63
2023/09/19 06:05:19;;;;;;;14.30;3.00;;;;;;;;;;5026732;28;20096;-63
2023/09/19 06:07:46;;;;;;;13.70;3.40;;;;;;;;;;5028380;28;20050;-63
2023/09/19 06:10:17;;;;;;;13.17;3.37;;;;;;;;;;5026399;28;20050;-63
2023/09/19 06:12:46;;;;;;;14.30;3.07;;;;;;;;;;5027741;28;20054;-63
2023/09/19 06:15:15;;;;;;;12.03;2.83;;;;;;;;;;5027844;28;20049;-63
2023/09/19 06:17:48;;;;;;;16.23;2.93;;;;;;;;;;5027113;28;20491;-63
2023/09/19 06:20:14;;;;;;;12.00;2.80;;;;;;;;;;5027340;28;20132;-63
2023/09/19 06:22:43;;;;;;;12.63;3.30;;;;;;;;;;5027475;28;20053;-63
2023/09/19 06:25:19;;;;;;;11.80;2.53;;;;;;;;;;5027216;28;20054;-63
2023/09/19 06:27:45;;;;;;;10.27;3.20;;;;;;;;;;5027518;28;20064;-63
2023/09/19 06:30:11;;;;;;;18.97;3.13;;;;;;;;;;5034102;28;20045;-63
2023/09/19 06:32:37;;;;;;;11.50;3.07;;;;;;;;;;5039775;28;20048;-63
2023/09/19 06:35:07;;;;;;;14.60;3.77;;;;;;;;;;5026857;28;20045;-63
2023/09/19 06:37:34;;;;;;;12.73;2.37;;;;;;;;;;5025617;28;20053;-63
2023/09/19 06:40:00;;;;;;;18.00;4.13;;;;;;;;;;5027436;28;20076;-63
2023/09/19 06:42:28;;;;;;;15.30;3.40;;;;;;;;;;5027313;28;20088;-63
2023/09/19 06:44:54;;;;;;;11.17;3.20;;;;;;;;;;5027040;28;20052;-63
2023/09/19 06:47:20;;;;;;;17.77;3.87;;;;;;;;;;5025876;28;20785;-64
2023/09/19 06:49:47;;;;;;;11.47;2.73;;;;;;;;;;5026416;28;20891;-63
2023/09/19 06:52:14;;;;;;;17.63;3.33;;;;;;;;;;5026524;28;20069;-64
2023/09/19 06:54:41;;;;;;;14.47;3.83;;;;;;;;;;5026984;28;20449;-63
2023/09/19 06:57:10;;;;;;;10.97;3.13;;;;;;;;;;5025153;28;20098;-63
2023/09/19 06:59:37;;;;;;;13.37;2.47;;;;;;;;;;5029653;28;20128;-63
2023/09/19 07:02:05;;;;;;;12.33;2.80;;;;;;;;;;5030949;28;20124;-64
2023/09/19 07:04:32;;;;;;;15.23;3.13;;;;;;;;;;5030722;28;20105;-63
2023/09/19 07:06:58;;;;;;;18.67;4.97;;;;;;;;;;5030912;28;20045;-63
2023/09/19 07:09:27;;;;;;;13.80;2.90;;;;;;;;;;5029800;28;20044;-63
2023/09/19 07:11:53;;;;;;;11.53;2.80;;;;;;;;;;5030951;28;20496;-63
2023/09/19 07:14:19;;;;;;;13.50;3.47;;;;;;;;;;5029782;28;20539;-64
2023/09/19 07:16:47;;;;;;;12.33;2.70;;;;;;;;;;5030957;28;20045;-63
2023/09/19 07:19:15;;;;;;;11.20;2.93;;;;;;;;;;5029665;28;20144;-63
2023/09/19 07:21:42;;;;;;;10.97;2.77;;;;;;;;;;5029588;28;20049;-63
2023/09/19 07:24:08;;;;;;;9.50;3.50;;;;;;;;;;5035483;28;20072;-63
2023/09/19 07:26:34;;;;;;;16.00;2.97;;;;;;;;;;5039543;28;20407;-64
2023/09/19 07:29:02;;;;;;;11.70;2.53;;;;;;;;;;5033338;28;20052;-63
2023/09/19 07:31:29;;;;;;;10.47;2.80;;;;;;;;;;5030681;28;20064;-63
2023/09/19 07:33:55;;;;;;;15.97;2.87;;;;;;;;;;5028894;28;20053;-64
2023/09/19 07:36:21;;;;;;;16.57;3.10;;;;;;;;;;5033330;28;20053;-64
2023/09/19 07:38:48;;;;;;;13.50;3.40;;;;;;;;;;5034720;28;20331;-63
2023/09/19 07:41:13;;;;;;;13.23;2.60;;;;;;;;;;5031788;28;20053;-64
2023/09/19 07:43:40;;;;;;;11.40;2.70;;;;;;;;;;5027425;28;20056;-63
2023/09/19 07:46:07;;;;;;;11.93;3.10;;;;;;;;;;5031943;28;20140;-64
2023/09/19 07:48:33;;;;;;;16.20;2.70;;;;;;;;;;5030118;28;20037;-64
2023/09/19 07:51:03;;;;;;;13.37;2.63;;;;;;;;;;5028008;28;20064;-63
2023/09/19 07:53:30;;;;;;;14.70;4.23;;;;;;;;;;5029978;28;20045;-63
2023/09/19 07:56:19;;;;;;;13.23;2.77;;;;;;;;;;5029905;28;20042;-64
2023/09/19 07:58:45;;;;;;;10.07;2.70;;;;;;;;;;5029583;28;20237;-64
2023/09/19 08:01:12;;;;;;;11.97;2.67;;;;;;;;;;5029652;28;20046;-63
2023/09/19 08:03:40;;;;;;;11.60;2.70;;;;;;;;;;5028565;28;20049;-63
2023/09/19 08:06:06;;;;;;;14.50;3.23;;;;;;;;;;5028796;28;20124;-64
2023/09/19 08:08:34;;;;;;;12.97;3.27;;;;;;;;;;5030401;28;20041;-63
2023/09/19 08:11:01;;;;;;;11.03;2.90;;;;;;;;;;5028872;28;20056;-63
2023/09/19 08:13:27;;;;;;;16.07;2.83;;;;;;;;;;5041400;28;20044;-63
2023/09/19 08:15:53;;;;;;;16.60;2.80;;;;;;;;;;5029614;28;20046;-63
2023/09/19 08:18:22;;;;;;;12.73;3.10;;;;;;;;;;5039562;28;20059;-64
2023/09/19 08:20:51;;;;;;;13.30;3.20;;;;;;;;;;5035999;28;20061;-64
2023/09/19 08:23:19;;;;;;;19.00;4.30;;;;;;;;;;5029735;28;20095;-64
2023/09/19 08:25:45;;;;;;;13.63;3.20;;;;;;;;;;5029238;28;20088;-64
2023/09/19 08:28:14;;;;;;;9.50;3.13;;;;;;;;;;5033112;28;20522;-64
2023/09/19 08:30:40;;;;;;;13.03;3.13;;;;;;;;;;5045827;28;20053;-64
2023/09/19 08:33:07;;;;;;;12.60;3.50;;;;;;;;;;5028823;28;20085;-63
2023/09/19 08:35:33;;;;;;;22.80;4.37;;;;;;;;;;5028074;28;20080;-63
2023/09/19 08:38:04;;;;;;;10.73;3.23;;;;;;;;;;5029107;28;20041;-63
2023/09/19 08:40:33;;;;;;;15.43;2.93;;;;;;;;;;5028944;28;20187;-63
2023/09/19 08:43:00;;;;;;;10.73;2.73;;;;;;;;;;5028980;28;20312;-63
2023/09/19 08:45:29;;;;;;;11.40;2.87;;;;;;;;;;5028754;28;20041;-63
2023/09/19 08:48:04;;;;;;;13.13;3.63;;;;;;;;;;5027443;28;20055;-63
2023/09/19 08:50:30;;;;;;;14.83;3.67;;;;;;;;;;5026442;28;20496;-63
2023/09/19 08:52:57;;;;;;;11.13;3.30;;;;;;;;;;5028875;28;20038;-62
2023/09/19 08:55:28;;;;;;;12.00;2.97;;;;;;;;;;5028552;28;20089;-63
2023/09/19 08:58:00;;;;;;;12.67;2.53;;;;;;;;;;5028706;28;20132;-62
2023/09/19 09:00:27;;;;;;;17.73;3.23;;;;;;;;;;5028014;28;20049;-62
2023/09/19 09:02:55;;;;;;;11.93;3.10;;;;;;;;;;5028716;28;20476;-62
2023/09/19 09:05:22;;;;;;;12.07;2.80;;;;;;;;;;5028510;28;20504;-62
2023/09/19 09:07:51;;;;;;;19.00;4.37;;;;;;;;;;5028369;28;20045;-62
2023/09/19 09:10:17;;;;;;;9.23;2.90;;;;;;;;;;5028459;28;20066;-62
2023/09/19 09:12:44;;;;;;;12.10;2.67;;;;;;;;;;5028013;28;20134;-62
2023/09/19 09:15:12;;;;;;;12.00;3.10;;;;;;;;;;5028300;28;20037;-62
2023/09/19 09:17:38;;;;;;;15.30;2.87;;;;;;;;;;5028415;28;20046;-62
2023/09/19 09:20:08;;;;;;;10.43;2.90;;;;;;;;;;5027718;28;20846;-62
2023/09/19 09:22:34;;;;;;;12.77;3.00;;;;;;;;;;5027666;28;20419;-61
2023/09/19 09:25:04;;;;;;;13.97;3.60;;;;;;;;;;5028218;28;20049;-61
2023/09/19 09:27:32;;;;;;;13.90;3.23;;;;;;;;;;5028274;28;20137;-61
2023/09/19 09:29:58;;;;;;;13.70;3.00;;;;;;;;;;5028204;28;20056;-61
2023/09/19 09:32:28;;;;;;;14.13;2.90;;;;;;;;;;5027727;28;20514;-62
2023/09/19 09:34:59;;;;;;;13.80;3.53;;;;;;;;;;5028449;28;20058;-61
2023/09/19 09:37:26;;;;;;;13.70;3.10;;;;;;;;;;5028176;28;20080;-61
2023/09/19 09:39:58;;;;;;;13.73;3.93;;;;;;;;;;5028056;28;20049;-61
2023/09/19 09:42:35;;;;;;;13.60;3.07;;;;;;;;;;5027406;28;20085;-61
2023/09/19 09:45:17;;;;;;;11.97;3.20;;;;;;;;;;5028025;28;20099;-61
2023/09/19 09:47:54;;;;;;;15.87;3.27;;;;;;;;;;5027964;28;20474;-62
2023/09/19 09:50:29;;;;;;;14.47;3.30;;;;;;;;;;5027266;28;20148;-61
2023/09/19 09:53:02;;;;;;;14.10;4.00;;;;;;;;;;5027939;28;20434;-61
2023/09/19 09:55:28;;;;;;;;;;;;;;;;;;5028356;28;20060;-62
2023/09/19 09:58:13;;;;;;;14.07;3.33;;;;;;;;;;5026183;28;20406;-61
2023/09/19 10:00:57;;;;;;;12.13;3.10;;;;;;;;;;5027911;28;20051;-61
2023/09/19 10:03:23;;;;;;;;;;;;;;;;;;5028494;28;20041;-61
2023/09/19 10:05:55;;;;;;;15.97;4.53;;;;;;;;;;5025866;28;20035;-61
2023/09/19 10:08:21;;;;;;;15.93;3.03;;;;;;;;;;5026490;28;20058;-61
2023/09/19 10:10:53;;;;;;;13.93;4.67;;;;;;;;;;5027230;28;20076;-61
2023/09/19 10:13:23;;;;;;;11.13;2.80;;;;;;;;;;5025942;28;20098;-61
2023/09/19 10:15:54;;;;;;;14.77;3.07;;;;;;;;;;5026968;28;20563;-61
2023/09/19 10:18:20;;;;;;;16.07;3.77;;;;;;;;;;5027377;28;20049;-61
2023/09/19 10:20:48;;;;;;;14.20;3.83;;;;;;;;;;5034821;28;20048;-61
2023/09/19 10:23:17;;;;;;;13.83;3.37;;;;;;;;;;5032594;28;20542;-61
2023/09/19 10:25:47;;;;;;;13.93;3.33;;;;;;;;;;5035526;28;20045;-61
2023/09/19 10:28:14;;;;;;;16.93;2.90;;;;;;;;;;5043083;28;20056;-61
2023/09/19 10:30:44;;;;;;;9.53;2.77;;;;;;;;;;5025957;28;20153;-61
2023/09/19 10:33:12;;;;;;;13.17;3.60;;;;;;;;;;5027842;28;20099;-61
2023/09/19 10:35:45;;;;;;;13.43;2.80;;;;;;;;;;5041380;28;20045;-61
2023/09/19 10:38:12;;;;;;;14.13;2.93;;;;;;;;;;5042438;28;20088;-61
2023/09/19 10:40:45;;;;;;;13.53;2.90;;;;;;;;;;5030598;28;20625;-61
2023/09/19 10:43:18;;;;;;;15.00;4.00;;;;;;;;;;5031327;28;20057;-61
2023/09/19 10:45:46;;;;;;;14.07;3.40;;;;;;;;;;5030785;28;20041;-61
2023/09/19 10:48:12;;;;;;;11.23;3.43;;;;;;;;;;5027702;28;20380;-61
2023/09/19 10:50:44;;;;;;;21.93;3.87;;;;;;;;;;5030450;28;20049;-61
2023/09/19 10:53:11;;;;;;;14.73;2.80;;;;;;;;;;5030532;28;20049;-61
2023/09/19 10:55:38;;;;;;;15.03;3.30;;;;;;;;;;5030067;28;20559;-61
2023/09/19 10:58:14;;;;;;;15.70;3.70;;;;;;;;;;5029208;28;20045;-62
2023/09/19 11:00:54;;;;;;;10.23;2.60;;;;;;;;;;5029063;28;20385;-61
2023/09/19 11:03:23;;;;;;;11.90;2.90;;;;;;;;;;5029677;28;20052;-62
2023/09/19 11:06:27;;;;;;;17.37;2.77;;;;;;;;;;5031121;28;20033;-61
2023/09/19 11:08:57;;;;;;;17.00;2.87;;;;;;;;;;5008505;28;20085;-61
2023/09/19 11:11:38;;;;;;;17.50;3.43;;;;;;;;;;5007687;28;20109;-61
2023/09/19 11:14:29;;;;;;;18.80;3.20;;;;;;;;;;5020694;28;20045;-62
2023/09/19 11:17:07;;;;;;;26.70;3.83;;;;;;;;;;5030339;28;20132;-62
2023/09/19 11:19:54;;;;;;;11.03;2.70;;;;;;;;;;5030579;28;20504;-61
2023/09/19 11:22:22;;;;;;;14.00;3.33;;;;;;;;;;5029866;28;20061;-62
2023/09/19 11:24:50;;;;;;;17.00;3.50;;;;;;;;;;5030420;28;20060;-61
2023/09/19 11:27:18;;;;;;;11.17;3.40;;;;;;;;;;5030344;28;20057;-62
2023/09/19 11:29:44;;;;;;;14.20;3.03;;;;;;;;;;5030279;28;20050;-62
2023/09/19 11:32:11;;;;;;;13.13;2.77;;;;;;;;;;5029650;28;20045;-61
2023/09/19 11:34:39;;;;;;;11.13;2.70;;;;;;;;;;5029974;28;20407;-62
2023/09/19 11:37:11;;;;;;;14.67;3.13;;;;;;;;;;5029921;28;20077;-62
2023/09/19 11:39:38;;;;;;;23.50;3.60;;;;;;;;;;5029876;28;20136;-61
2023/09/19 11:42:44;;;;;;;10.63;2.57;;;;;;;;;;5029874;28;20112;-61
2023/09/19 11:45:29;;;;;;;14.80;3.10;;;;;;;;;;5005921;28;20049;-62
2023/09/19 11:47:57;;;;;;;11.03;2.67;;;;;;;;;;5007670;28;20046;-61
2023/09/19 11:50:24;;;;;;;13.40;3.00;;;;;;;;;;5021169;28;20049;-61
2023/09/19 11:52:52;;;;;;;11.33;2.50;;;;;;;;;;5029386;28;20041;-62
2023/09/19 11:55:21;;;;;;;11.83;3.37;;;;;;;;;;5061481;28;20520;-62
2023/09/19 11:57:50;;;;;;;10.40;3.40;;;;;;;;;;5029648;28;20049;-61
2023/09/19 12:00:21;;;;;;;13.33;3.10;;;;;;;;;;5029681;28;20041;-61
2023/09/19 12:02:48;;;;;;;12.93;3.33;;;;;;;;;;5029256;28;20053;-62
2023/09/19 12:05:15;;;;;;;12.63;3.17;;;;;;;;;;5029508;28;20105;-61
2023/09/19 12:07:47;;;;;;;7.77;2.03;;;;;;;;;;5029643;28;20053;-61
2023/09/19 12:10:16;;;;;;;12.65;2.60;;;;;;;;;;5029441;28;20049;-62
2023/09/19 12:12:48;;;;;;;6.50;2.10;;;;;;;;;;5029392;28;20053;-61
2023/09/19 12:15:14;;;;;;;12.23;2.30;;;;;;;;;;5028611;28;20041;-62
2023/09/19 12:17:42;;;;;;;14.67;2.80;;;;;;;;;;5029407;28;20071;-62
2023/09/19 12:20:16;;;;;;;11.70;2.43;;;;;;;;;;5029100;28;20057;-61
2023/09/19 12:22:47;;;;;;;13.33;2.30;;;;;;;;;;5029321;28;20046;-61
2023/09/19 12:25:13;;;;;;;8.17;2.10;;;;;;;;;;5029282;28;20099;-61
2023/09/19 12:27:52;;;;;;;9.23;2.33;;;;;;;;;;5029303;28;20045;-62
2023/09/19 12:30:20;;;;;;;14.00;3.10;;;;;;;;;;5028929;28;20381;-61
2023/09/19 12:32:47;;;;;;;8.00;2.20;;;;;;;;;;5029260;28;20053;-62
2023/09/19 12:35:28;;;;;;;14.10;2.37;;;;;;;;;;5029659;28;20053;-62
2023/09/19 12:37:55;;;;;;;8.10;2.07;;;;;;;;;;5029370;28;20075;-61
2023/09/19 12:40:28;;;;;;;14.10;2.70;;;;;;;;;;5028768;28;20385;-62
2023/09/19 12:42:55;;;;;;;;;;;;;;;;;;5029549;28;20163;-62
2023/09/19 12:45:21;;;;;;;13.93;2.10;;;;;;;;;;5029399;28;19921;-61
2023/09/19 12:48:07;;;;;;;6.83;1.73;;;;;;;;;;5029120;28;20104;-62
2023/09/19 12:50:34;;;;;;;9.40;2.20;;;;;;;;;;5028990;28;20057;-62
2023/09/19 12:53:00;;;;;;;12.00;2.27;;;;;;;;;;5028954;28;20133;-62
2023/09/19 12:55:27;;;;;;;12.00;2.10;;;;;;;;;;5028693;28;20151;-62
2023/09/19 12:58:10;;;;;;;9.90;2.10;;;;;;;;;;5028470;28;20091;-61
2023/09/19 13:00:38;;;;;;;16.77;2.22;;;;;;;;;;5028681;28;20045;-62
2023/09/19 13:03:22;;;;;;;9.07;1.93;;;;;;;;;;5028717;28;20076;-61
2023/09/19 13:05:53;;;;;;;6.77;1.80;;;;;;;;;;5028808;28;20141;-62
2023/09/19 13:08:21;;;;;;;14.33;2.27;;;;;;;;;;5028637;28;20050;-62
2023/09/19 13:11:02;;;;;;;9.53;2.10;;;;;;;;;;5028584;28;20044;-61
2023/09/19 13:13:28;;;;;;;10.77;2.13;;;;;;;;;;5028379;28;20037;-62
2023/09/19 13:15:57;;;;;;;8.03;2.07;;;;;;;;;;5028087;28;20041;-61
2023/09/19 13:18:25;;;;;;;10.20;2.13;;;;;;;;;;5028363;28;20103;-62
2023/09/19 13:21:12;;;;;;;9.73;2.00;;;;;;;;;;5028471;28;20392;-61
2023/09/19 13:23:39;;;;;;;5.17;1.70;;;;;;;;;;5028855;28;20136;-61
2023/09/19 13:26:05;;;;;;;9.70;2.27;;;;;;;;;;5027887;28;20041;-62
2023/09/19 13:28:32;;;;;;;9.77;2.03;;;;;;;;;;5028153;28;20045;-62
2023/09/19 13:30:58;;;;;;;8.43;1.83;;;;;;;;;;5028350;28;20085;-62
2023/09/19 13:33:24;;;;;;;8.23;2.07;;;;;;;;;;5027826;28;20092;-62
2023/09/19 13:35:51;;;;;;;8.47;1.73;;;;;;;;;;5027752;28;20071;-61
2023/09/19 13:38:18;;;;;;;8.77;2.27;;;;;;;;;;5028215;28;20042;-62
2023/09/19 13:40:44;;;;;;;5.63;1.50;;;;;;;;;;5027881;28;20064;-62
2023/09/19 13:43:13;;;;;;;9.30;1.77;;;;;;;;;;5027684;28;20057;-61
2023/09/19 13:45:42;;;;;;;9.23;1.83;;;;;;;;;;5027961;28;20045;-62
2023/09/19 13:48:08;;;;;;;11.03;1.80;;;;;;;;;;5027116;28;20117;-62
2023/09/19 13:50:41;;;;;;;10.73;2.40;;;;;;;;;;5027175;28;20515;-62
2023/09/19 13:53:08;;;;;;;12.50;2.43;;;;;;;;;;5026891;28;20056;-62
2023/09/19 13:55:34;;;;;;;8.43;2.33;;;;;;;;;;5027833;28;20416;-62
2023/09/19 13:58:00;;;;;;;7.70;1.90;;;;;;;;;;5059833;28;20047;-62
2023/09/19 14:00:27;;;;;;;8.17;2.10;;;;;;;;;;5026995;28;20127;-62
2023/09/19 14:02:53;;;;;;;7.03;1.50;;;;;;;;;;5028023;28;20049;-62
2023/09/19 14:05:20;;;;;;;10.40;1.90;;;;;;;;;;5027621;28;20041;-62
2023/09/19 14:07:46;;;;;;;6.70;1.87;;;;;;;;;;5028962;28;20053;-62
2023/09/19 14:10:12;;;;;;;4.67;1.87;;;;;;;;;;5033761;28;20120;-62
2023/09/19 14:12:40;;;;;;;10.20;2.17;;;;;;;;;;5034410;28;20199;-62
2023/09/19 14:15:07;;;;;;;4.10;1.07;;;;;;;;;;5034302;28;20051;-62
2023/09/19 14:17:33;;;;;;;10.40;1.80;;;;;;;;;;5034260;28;20045;-62
2023/09/19 14:19:59;;;;;;;5.53;1.40;;;;;;;;;;5033763;28;20057;-62
2023/09/19 14:22:25;;;;;;;12.03;1.50;;;;;;;;;;5034058;28;20123;-62
2023/09/19 14:24:52;;;;;;;4.67;1.20;;;;;;;;;;5033986;28;20085;-61
2023/09/19 14:27:18;;;;;;;6.33;1.20;;;;;;;;;;5034115;28;20049;-62
2023/09/19 14:29:44;;;;;;;8.33;1.33;;;;;;;;;;5034366;28;20047;-62
2023/09/19 14:32:10;;;;;;;8.57;1.50;;;;;;;;;;5033352;28;20041;-62
2023/09/19 14:34:41;;;;;;;8.17;1.80;;;;;;;;;;5034039;28;20037;-62
2023/09/19 14:37:07;;;;;;;6.50;1.70;;;;;;;;;;5033842;28;20063;-62
2023/09/19 14:39:33;;;;;;;8.13;1.77;;;;;;;;;;5034168;28;20076;-61
2023/09/19 14:41:59;;;;;;;7.47;1.33;;;;;;;;;;5033406;28;20049;-62
2023/09/19 14:44:25;;;;;;;4.60;1.40;;;;;;;;;;5033922;28;20461;-62